createdAt,value
2018-06-21T00:01:26.559Z,23
2018-06-21T00:11:26.357Z,23
2018-06-21T00:21:26.596Z,22
2018-06-21T00:31:26.497Z,22
2018-06-21T00:41:31.154Z,22
2018-06-21T00:51:26.899Z,22
2018-06-21T01:01:27.069Z,22
2018-06-21T01:11:27.892Z,22
2018-06-21T01:21:27.235Z,22
2018-06-21T01:31:28.180Z,22
2018-06-21T01:41:27.000Z,22
2018-06-21T01:51:27.116Z,22
2018-06-21T02:01:26.908Z,22
2018-06-21T02:11:28.665Z,22
2018-06-21T02:21:26.927Z,22
2018-06-21T02:31:26.789Z,22
2018-06-21T02:41:28.648Z,22
2018-06-21T02:51:27.234Z,22
2018-06-21T03:01:27.145Z,22
2018-06-21T03:11:27.270Z,21
2018-06-21T03:21:26.384Z,22
2018-06-21T03:31:26.479Z,21
2018-06-21T03:41:26.351Z,22
2018-06-21T03:51:26.236Z,22
2018-06-21T04:01:27.708Z,22
2018-06-21T04:11:26.812Z,22
2018-06-21T04:21:27.598Z,22
2018-06-21T04:31:26.571Z,22
2018-06-21T04:41:27.861Z,22
2018-06-21T04:51:27.910Z,22
2018-06-21T05:01:26.775Z,22
2018-06-21T05:11:28.806Z,23
2018-06-21T05:21:27.102Z,23
2018-06-21T05:31:27.573Z,23
2018-06-21T05:41:27.556Z,23
2018-06-21T05:51:26.533Z,23
2018-06-21T06:01:26.448Z,23
2018-06-21T06:11:28.008Z,24
2018-06-21T06:21:29.296Z,24
2018-06-21T06:31:26.351Z,24
2018-06-21T06:41:26.626Z,25
2018-06-21T06:51:26.717Z,25
2018-06-21T07:01:27.216Z,25
2018-06-21T07:11:27.374Z,25
2018-06-21T07:21:26.499Z,25
2018-06-21T07:31:26.953Z,25
2018-06-21T07:41:27.486Z,26
2018-06-21T07:51:26.610Z,26
2018-06-21T08:01:28.027Z,26
2018-06-21T08:11:28.394Z,26
2018-06-21T08:21:26.863Z,26
2018-06-21T08:31:29.038Z,26
2018-06-21T08:41:27.888Z,27
2018-06-21T08:51:27.190Z,27
2018-06-21T09:01:27.492Z,26
2018-06-21T09:11:26.425Z,26
2018-06-21T09:21:27.464Z,28
2018-06-21T09:31:26.627Z,27
2018-06-21T09:41:26.790Z,28
2018-06-21T09:51:27.000Z,28
2018-06-21T10:01:27.055Z,28
2018-06-21T10:11:27.300Z,28
2018-06-21T10:21:26.424Z,28
2018-06-21T10:31:27.524Z,29
2018-06-21T10:41:26.848Z,28
2018-06-21T10:51:27.089Z,29
2018-06-21T11:01:27.347Z,29
2018-06-21T11:11:26.603Z,29
2018-06-21T11:21:29.601Z,29
2018-06-21T11:31:28.303Z,30
2018-06-21T11:41:26.538Z,29
2018-06-21T11:51:27.995Z,30
2018-06-21T12:01:27.779Z,29
2018-06-21T12:11:27.612Z,30
2018-06-21T12:21:27.121Z,29
2018-06-21T12:31:27.960Z,30
2018-06-21T12:41:28.512Z,30
2018-06-21T12:51:26.754Z,30
2018-06-21T13:01:32.292Z,30
2018-06-21T13:11:27.100Z,31
2018-06-21T13:21:28.810Z,31
2018-06-21T13:31:27.069Z,31
2018-06-21T13:41:29.420Z,31
2018-06-21T13:51:26.355Z,31
2018-06-21T14:01:26.516Z,31
2018-06-21T14:11:28.869Z,31
2018-06-21T14:21:33.207Z,32
2018-06-21T14:31:30.250Z,31
2018-06-21T14:41:27.299Z,31
2018-06-21T14:51:27.791Z,32
2018-06-21T15:01:27.399Z,32
2018-06-21T15:11:27.847Z,32
2018-06-21T15:21:27.936Z,32
2018-06-21T15:31:27.764Z,32
2018-06-21T15:41:26.798Z,32
2018-06-21T15:51:26.831Z,32
2018-06-21T16:01:27.511Z,31
2018-06-21T16:11:30.019Z,32
2018-06-21T16:21:27.826Z,32
2018-06-21T16:31:32.307Z,32
2018-06-21T16:41:29.208Z,33
2018-06-21T16:51:27.790Z,33
2018-06-21T17:01:26.989Z,33
2018-06-21T17:11:28.322Z,32
2018-06-21T17:21:27.349Z,31
2018-06-21T17:31:28.771Z,31
2018-06-21T17:41:28.219Z,31
2018-06-21T17:51:27.410Z,32
2018-06-21T18:01:26.856Z,31
2018-06-21T18:11:27.660Z,30
2018-06-21T18:21:27.089Z,30
2018-06-21T18:31:27.632Z,29
2018-06-21T18:41:26.598Z,29
2018-06-21T18:51:26.812Z,29
2018-06-21T19:01:26.989Z,29
2018-06-21T19:11:27.316Z,26
2018-06-21T19:21:27.372Z,26
2018-06-21T19:31:27.211Z,25
2018-06-21T19:41:27.394Z,24
2018-06-21T19:51:26.744Z,24
2018-06-21T20:01:26.904Z,24
2018-06-21T20:11:36.320Z,23
2018-06-21T20:21:26.762Z,22
2018-06-21T20:31:27.617Z,22
2018-06-21T20:41:32.009Z,21
2018-06-21T20:51:26.902Z,21
2018-06-21T21:01:27.821Z,21
2018-06-21T21:11:27.315Z,21
2018-06-21T21:21:27.443Z,20
2018-06-21T21:31:26.279Z,21
2018-06-21T21:41:26.778Z,20
2018-06-21T21:51:28.503Z,20
2018-06-21T22:01:27.522Z,20
2018-06-21T22:11:28.819Z,20
2018-06-21T22:21:28.223Z,19
2018-06-21T22:31:27.506Z,18
2018-06-21T22:41:27.600Z,18
2018-06-21T22:51:28.623Z,18
2018-06-21T23:01:26.683Z,18
2018-06-21T23:11:27.584Z,18
2018-06-21T23:21:27.977Z,18
2018-06-21T23:31:27.813Z,18
2018-06-21T23:41:27.925Z,18
2018-06-21T23:51:28.159Z,18
